Curacao Island, Curacao

4:22 PM AST on December 09, 2016 (GMT -0400)
Willemstad-Hato International | | Change Station

Elev 30 ft 12.19 °N, 68.96 °W | Updated 22 minutes ago

Light Rain Showers
Light Showers Rain
75 °F
Feels Like 75 °F
N
7
Wind Variable Wind from ESE

Today
High -- | Low -- °F
--% Chance of Precip.
Yesterday
High -- | Low -- °F
Precip. -- in
Pressure 29.89 in
Visibility 3.1 miles
Clouds Few 1300 ft
Mostly Cloudy 1500 ft
Dew Point 73 °F
Humidity 94%
Rainfall 0.00 in
Snow Depth Not available.
6:45 AM 6:11 PM
Waxing Gibbous, 77% visible
METAR TNCC 092000Z 11006KT 5000 -SHRA FEW013CB BKN015 24/23 Q1012 TEMPO 2000 TSRA SCT012CB BKN015
Pressure 29.89 in
Visibility 3.1 miles
Clouds Few 1300 ft
Mostly Cloudy 1500 ft
Dew Point 73 °F
Humidity 94%
Rainfall 0.00 in
Snow Depth Not available.
6:45 AM 6:11 PM
Waxing Gibbous, 77% visible
METAR TNCC 092000Z 11006KT 5000 -SHRA FEW013CB BKN015 24/23 Q1012 TEMPO 2000 TSRA SCT012CB BKN015

10-Day Weather Forecast

No radar image for this location.
×

Almanac

Astronomy

Dec. 09, 2016 Rise Set
Actual Time
Civil Twilight
Nautical Twilight
Astronomical Twilight
Moon
Length of Visible Light
Length of Day
Tomorrow will be .
, % of the Moon is Illuminated

Today's Extremes

Country Highs Country Lows

Community

WunderPhotos

Upload Photos

1,956,517 photos uploaded!

WunderBlog® & News

Nearby

Air Quality

  Air Quality AQ Index Pollutant
Not available.

Snow Depth

Station Depth Elevation

Earthquake Activity

City Distance Mag. Time & Date
Minimum magnitude displayed is 2.5.

Coastal Water Temperatures

Place Temperature

Stations

Nearby Weather Stations

Station Location Temp. Windchill Dew Point Humidity Wind Precip. Elev Updated Type